Terminal Aerodrome Forecast
Issued by NWS

Home | Current Version | Previous Version | Text Only | Print | Product List | Glossary Off
Versions: 1 2 3 4 5 6 7 8 9 10 11 12 13 14 15 16 17 18 19 20 21 22 23 24 25 26 27 28

000
FTUS43 KABR 241526 AAB
TAFATY
TAF AMD
KATY 241526Z 2415/2512 02015KT 5SM BR OVC005
     FM241700 02017G24KT P6SM OVC020
     FM242100 02014G23KT P6SM BKN020
     FM250000 02012KT P6SM SCT025
     FM250800 05007KT P6SM SCT010
     FM251000 06007KT 1SM BR SCT003=

USA.gov is the U.S. government's official web portal to all federal, state and local government web resources and services.